Time;durP1;ratioP1;P1;durP2;ratioP2;P2;SDS_P1;SDS_P2;PMS_P1;PMS_P2;Temp;Humidity;BMP_temperature;BMP_pressure;BME280_temperature;BME280_humidity;BME280_pressure;Samples;Min_cycle;Max_cycle;Signal;HPM_P1;HPM_P2
2022/08/25 00:01:25;;;;;;;11.30;5.57;;;20.90;99.90;;;;;;4934911;28;252785;-68
2022/08/25 00:03:51;;;;;;;10.65;5.70;;;20.90;99.90;;;;;;4931441;28;217116;-67
2022/08/25 00:06:18;;;;;;;10.95;5.40;;;20.90;99.90;;;;;;4958155;28;231171;-68
2022/08/25 00:08:44;;;;;;;17.10;6.40;;;20.80;99.90;;;;;;4935795;28;207177;-68
2022/08/25 00:11:18;;;;;;;10.70;6.60;;;20.80;99.90;;;;;;4956524;28;259004;-66
2022/08/25 00:13:47;;;;;;;11.88;6.53;;;20.80;99.90;;;;;;4929231;28;210073;-67
2022/08/25 00:16:15;;;;;;;10.90;5.65;;;20.80;99.90;;;;;;4951175;28;268553;-67
2022/08/25 00:18:46;;;;;;;13.95;6.40;;;20.80;99.90;;;;;;4929901;28;213649;-67
2022/08/25 00:21:14;;;;;;;12.13;5.85;;;20.70;99.90;;;;;;4942642;28;261430;-67
2022/08/25 00:23:41;;;;;;;11.30;6.28;;;20.70;99.90;;;;;;4944214;28;207134;-66
2022/08/25 00:26:09;;;;;;;9.43;5.43;;;20.70;99.90;;;;;;4957347;28;261546;-67
2022/08/25 00:28:35;;;;;;;12.05;5.45;;;20.70;99.90;;;;;;4919564;28;206121;-67
2022/08/25 00:31:02;;;;;;;11.48;5.80;;;20.60;99.90;;;;;;4955380;28;273477;-67
2022/08/25 00:33:30;;;;;;;10.60;5.30;;;20.60;99.90;;;;;;4935675;28;229053;-67
2022/08/25 00:35:57;;;;;;;12.20;5.80;;;20.60;99.90;;;;;;4963632;28;255305;-67
2022/08/25 00:38:23;;;;;;;12.45;5.82;;;20.60;99.90;;;;;;4936232;28;206390;-70
2022/08/25 00:41:04;;;;;;;11.50;5.72;;;20.50;99.90;;;;;;4973047;28;20035;-68
2022/08/25 00:43:39;;;;;;;;;;;20.50;99.90;;;;;;4934696;28;168667;-68
2022/08/25 00:46:06;;;;;;;15.40;5.70;;;20.50;99.90;;;;;;4961008;28;266891;-67
2022/08/25 00:48:32;;;;;;;12.75;5.68;;;20.40;99.90;;;;;;4941457;28;210507;-67
2022/08/25 00:51:00;;;;;;;12.35;5.40;;;20.40;99.90;;;;;;4958877;28;261901;-67
2022/08/25 00:53:27;;;;;;;12.50;5.43;;;20.40;99.90;;;;;;4937168;28;215993;-68
2022/08/25 00:55:54;;;;;;;12.95;5.22;;;20.40;99.90;;;;;;4970234;28;20062;-67
2022/08/25 00:58:24;;;;;;;10.88;4.80;;;20.40;99.90;;;;;;4906331;28;226939;-67
2022/08/25 01:00:52;;;;;;;10.85;4.93;;;20.30;99.90;;;;;;4971687;28;20055;-67
2022/08/25 01:03:20;;;;;;;12.10;4.97;;;20.30;99.90;;;;;;4908088;28;231478;-68
2022/08/25 01:05:47;;;;;;;11.77;4.85;;;20.30;99.90;;;;;;4965113;28;20515;-68
2022/08/25 01:08:15;;;;;;;9.55;4.60;;;20.30;99.90;;;;;;4924414;28;263973;-67
2022/08/25 01:10:43;;;;;;;10.32;4.85;;;20.30;99.90;;;;;;4979027;28;20066;-68
2022/08/25 01:13:35;;;;;;;10.48;4.50;;;20.20;99.90;;;;;;4921500;28;255699;-67
2022/08/25 01:16:02;;;;;;;9.60;4.37;;;20.30;99.90;;;;;;4946564;28;271257;-67
2022/08/25 01:18:40;;;;;;;10.50;3.97;;;20.30;99.90;;;;;;4939510;28;206313;-66
2022/08/25 01:21:06;;;;;;;11.50;4.15;;;20.20;99.90;;;;;;4951602;28;265873;-66
2022/08/25 01:23:33;;;;;;;9.88;4.10;;;20.20;99.90;;;;;;4936149;28;207294;-67
2022/08/25 01:26:15;;;;;;;9.95;4.25;;;20.20;99.90;;;;;;4959908;28;265812;-67
2022/08/25 01:29:19;;;;;;;8.23;3.65;;;20.20;99.90;;;;;;4936040;28;209560;-66
2022/08/25 01:31:30;;;;;;;9.77;3.70;;;20.20;99.90;;;;;;4957996;28;266927;-66
2022/08/25 01:33:57;;;;;;;10.77;3.78;;;20.20;99.90;;;;;;4935957;28;209191;-65
2022/08/25 01:36:26;;;;;;;13.77;3.75;;;20.20;99.90;;;;;;4954907;28;255130;-67
2022/08/25 01:38:52;;;;;;;10.20;3.60;;;20.20;99.90;;;;;;4944899;28;206426;-67
2022/08/25 01:41:47;;;;;;;9.25;3.88;;;20.20;99.90;;;;;;4954249;28;269596;-66
2022/08/25 01:44:14;;;;;;;9.57;3.80;;;20.20;99.90;;;;;;4895126;28;209001;-68
2022/08/25 01:46:41;;;;;;;11.32;3.95;;;20.10;99.90;;;;;;4920751;29;20179;-67
2022/08/25 01:49:07;;;;;;;11.10;3.40;;;20.10;99.90;;;;;;4898248;28;206564;-66
2022/08/25 01:51:41;;;;;;;11.15;3.45;;;20.10;99.90;;;;;;4931072;28;129319;-68
2022/08/25 01:54:08;;;;;;;10.10;3.30;;;20.10;99.90;;;;;;4901038;28;207740;-66
2022/08/25 01:56:34;;;;;;;12.18;3.70;;;20.10;99.90;;;;;;4925939;28;29260;-67
2022/08/25 01:59:00;;;;;;;11.15;3.42;;;20.10;99.90;;;;;;4875414;29;210121;-68
2022/08/25 02:01:27;;;;;;;8.15;3.15;;;20.10;99.90;;;;;;4906404;28;207052;-66
2022/08/25 02:03:55;;;;;;;9.55;2.88;;;20.10;99.90;;;;;;4902572;28;209925;-67
2022/08/25 02:06:27;;;;;;;12.77;3.40;;;20.10;99.90;;;;;;4918450;28;60423;-66
2022/08/25 02:08:59;;;;;;;9.32;3.40;;;20.00;99.90;;;;;;4902657;28;207969;-66
2022/08/25 02:11:26;;;;;;;9.48;3.33;;;20.00;99.90;;;;;;4929343;28;136734;-67
2022/08/25 02:13:54;;;;;;;12.23;3.20;;;20.00;99.90;;;;;;4895070;28;207361;-68
2022/08/25 02:16:24;;;;;;;10.70;3.10;;;20.00;99.90;;;;;;4921671;28;236242;-67
2022/08/25 02:18:51;;;;;;;15.82;2.90;;;20.00;99.90;;;;;;4894085;28;206809;-67
2022/08/25 02:21:18;;;;;;;8.85;2.83;;;20.00;99.90;;;;;;4933386;28;268489;-67
2022/08/25 02:23:44;;;;;;;9.05;3.05;;;20.00;99.90;;;;;;4920602;28;214418;-67
2022/08/25 02:26:10;;;;;;;9.35;3.15;;;20.00;99.90;;;;;;4958232;28;273291;-67
2022/08/25 02:28:37;;;;;;;12.38;3.08;;;19.90;99.90;;;;;;4941333;28;206884;-68
2022/08/25 02:31:04;;;;;;;10.30;3.50;;;20.00;99.90;;;;;;4958164;28;256693;-66
2022/08/25 02:33:30;;;;;;;10.70;3.20;;;19.90;99.90;;;;;;4921455;28;210475;-66
2022/08/25 02:35:58;;;;;;;11.27;3.20;;;19.90;99.90;;;;;;4966091;28;259500;-68
2022/08/25 02:38:26;;;;;;;8.30;3.03;;;19.90;99.90;;;;;;4940624;28;207033;-66
2022/08/25 02:40:54;;;;;;;11.93;3.40;;;19.90;99.90;;;;;;4969865;28;20526;-68
2022/08/25 02:43:21;;;;;;;9.32;3.40;;;19.90;99.90;;;;;;4901219;28;273423;-68
2022/08/25 02:45:47;;;;;;;10.88;3.40;;;19.90;99.90;;;;;;4978287;28;20062;-68
2022/08/25 02:48:13;;;;;;;12.95;3.03;;;19.90;99.90;;;;;;4921470;28;275062;-66
2022/08/25 02:50:39;;;;;;;11.00;3.08;;;19.80;99.90;;;;;;4975870;28;20645;-67
2022/08/25 02:53:06;;;;;;;9.43;2.80;;;19.80;99.90;;;;;;4920680;28;253091;-67
2022/08/25 02:55:32;;;;;;;10.15;3.30;;;19.90;99.90;;;;;;4971430;28;20658;-66
2022/08/25 02:57:58;;;;;;;8.65;3.08;;;19.80;99.90;;;;;;4916942;28;263013;-66
2022/08/25 03:00:25;;;;;;;8.68;2.88;;;19.80;99.90;;;;;;4972039;28;20408;-65
2022/08/25 03:02:51;;;;;;;9.07;2.92;;;19.80;99.90;;;;;;4924469;28;274381;-66
2022/08/25 03:05:17;;;;;;;11.50;3.10;;;19.80;99.90;;;;;;4960021;28;206448;-68
2022/08/25 03:07:43;;;;;;;10.57;2.90;;;19.80;99.90;;;;;;4961887;28;272838;-67
2022/08/25 03:10:14;;;;;;;9.27;2.80;;;19.80;99.90;;;;;;4930233;28;209211;-66
2022/08/25 03:12:41;;;;;;;8.80;2.75;;;19.80;99.90;;;;;;4960423;28;258120;-67
2022/08/25 03:15:14;;;;;;;9.10;3.15;;;19.80;99.90;;;;;;4930110;28;206568;-67
2022/08/25 03:17:40;;;;;;;8.65;2.85;;;19.70;99.90;;;;;;4960623;28;273175;-66
2022/08/25 03:20:07;;;;;;;9.10;3.08;;;19.70;99.90;;;;;;4933453;28;206710;-67
2022/08/25 03:22:33;;;;;;;8.02;2.97;;;19.70;99.90;;;;;;4958371;28;259116;-65
2022/08/25 03:27:45;;;;;;;9.43;3.13;;;19.70;99.90;;;;;;4961690;28;263624;-67
2022/08/25 03:30:12;;;;;;;11.02;2.95;;;19.70;99.90;;;;;;4946467;28;207036;-67
2022/08/25 03:32:38;;;;;;;8.73;2.88;;;19.60;99.90;;;;;;4959793;28;273043;-68
2022/08/25 03:35:05;;;;;;;9.15;3.00;;;19.60;99.90;;;;;;4929528;28;206837;-66
2022/08/25 03:37:31;;;;;;;9.73;2.88;;;19.60;99.90;;;;;;4957877;28;274258;-67
2022/08/25 03:39:57;;;;;;;12.18;3.60;;;19.60;99.90;;;;;;4931038;28;207202;-67
2022/08/25 03:42:25;;;;;;;10.05;3.35;;;19.50;99.90;;;;;;4956874;28;266184;-66
2022/08/25 03:44:51;;;;;;;9.52;3.00;;;19.50;99.90;;;;;;4911348;28;210386;-66
2022/08/25 03:47:17;;;;;;;10.73;3.33;;;19.50;99.90;;;;;;4957389;28;276296;-67
2022/08/25 03:49:43;;;;;;;9.35;2.90;;;19.50;99.90;;;;;;4945054;28;201678;-68
2022/08/25 03:52:10;;;;;;;9.80;2.90;;;19.50;99.90;;;;;;4957181;28;254154;-67
2022/08/25 03:54:36;;;;;;;12.20;3.17;;;19.40;99.90;;;;;;4929772;28;209175;-67
2022/08/25 03:57:02;;;;;;;10.80;3.22;;;19.40;99.90;;;;;;4956134;28;252527;-66
2022/08/25 03:59:28;;;;;;;10.00;2.90;;;19.40;99.90;;;;;;4934409;28;206245;-67
2022/08/25 04:01:55;;;;;;;11.73;3.25;;;19.40;99.90;;;;;;4940812;28;260766;-68
2022/08/25 04:04:21;;;;;;;8.82;3.38;;;19.30;99.90;;;;;;4929852;28;216102;-67
2022/08/25 04:06:47;;;;;;;10.05;2.90;;;19.30;99.90;;;;;;4953833;28;253859;-67
2022/08/25 04:09:13;;;;;;;8.27;3.20;;;19.30;99.90;;;;;;4926852;28;209525;-66
2022/08/25 04:11:40;;;;;;;9.10;3.17;;;19.20;99.90;;;;;;4948963;28;270057;-66
2022/08/25 04:14:06;;;;;;;9.07;2.83;;;19.20;99.90;;;;;;4933869;28;206419;-67
2022/08/25 04:16:33;;;;;;;8.43;3.10;;;19.20;99.90;;;;;;4953810;28;94240;-66
2022/08/25 04:19:03;;;;;;;13.93;3.70;;;19.20;99.90;;;;;;4938751;28;206465;-67
2022/08/25 04:21:29;;;;;;;10.00;3.08;;;19.20;99.90;;;;;;4955748;28;271204;-66
2022/08/25 04:23:56;;;;;;;8.57;2.80;;;19.20;99.90;;;;;;4929113;28;209358;-67
2022/08/25 04:26:32;;;;;;;10.07;3.33;;;19.10;99.90;;;;;;4952640;28;259283;-66
2022/08/25 04:28:59;;;;;;;9.70;3.33;;;19.10;99.90;;;;;;4948057;28;174636;-68
2022/08/25 04:31:26;;;;;;;9.35;2.83;;;19.10;99.90;;;;;;4960817;28;268582;-66
2022/08/25 04:33:52;;;;;;;10.45;3.22;;;19.10;99.90;;;;;;4934499;28;191460;-67
2022/08/25 04:36:20;;;;;;;10.05;3.22;;;19.10;99.90;;;;;;4960413;28;269627;-67
2022/08/25 04:38:48;;;;;;;10.13;3.45;;;19.10;99.90;;;;;;4938607;28;204820;-68
2022/08/25 04:41:18;;;;;;;9.77;3.10;;;19.10;99.90;;;;;;4955577;28;256215;-68
2022/08/25 04:43:44;;;;;;;10.90;3.53;;;19.10;99.90;;;;;;4921623;28;211456;-67
2022/08/25 04:46:30;;;;;;;8.45;3.17;;;19.10;99.90;;;;;;4943662;28;270021;-66
2022/08/25 04:48:58;;;;;;;11.85;3.53;;;19.10;99.90;;;;;;4939348;28;207386;-66
2022/08/25 04:51:29;;;;;;;9.32;3.33;;;19.10;99.90;;;;;;4956844;28;143949;-69
2022/08/25 04:53:58;;;;;;;10.60;3.38;;;19.10;99.90;;;;;;4908726;28;242667;-67
2022/08/25 04:56:24;;;;;;;11.50;3.35;;;19.10;99.90;;;;;;4947904;28;261264;-67
2022/08/25 04:58:51;;;;;;;9.10;3.45;;;19.10;99.90;;;;;;4937733;28;209923;-66
2022/08/25 05:01:20;;;;;;;11.05;3.63;;;19.10;99.90;;;;;;4940471;28;242000;-66
2022/08/25 05:03:51;;;;;;;12.25;3.20;;;19.20;99.90;;;;;;4941267;28;205662;-67
2022/08/25 05:06:17;;;;;;;8.68;3.03;;;19.20;99.90;;;;;;4933208;28;267761;-66
2022/08/25 05:08:44;;;;;;;8.68;3.47;;;19.20;99.90;;;;;;4925819;28;211189;-66
2022/08/25 05:11:13;;;;;;;8.57;3.10;;;19.20;99.90;;;;;;4959221;28;277231;-67
2022/08/25 05:13:40;;;;;;;8.80;3.30;;;19.30;99.90;;;;;;4921558;28;206398;-67
2022/08/25 05:16:06;;;;;;;8.95;3.15;;;19.30;99.90;;;;;;4953809;28;273052;-66
2022/08/25 05:18:34;;;;;;;9.32;3.28;;;19.40;99.90;;;;;;4923382;28;206281;-67
2022/08/25 05:21:03;;;;;;;9.73;3.20;;;19.40;99.90;;;;;;4954511;28;266062;-67
2022/08/25 05:23:29;;;;;;;8.85;3.45;;;19.40;99.90;;;;;;4937810;28;206706;-67
2022/08/25 05:26:02;;;;;;;9.13;3.10;;;19.50;99.90;;;;;;4968762;28;268541;-67
2022/08/25 05:28:28;;;;;;;10.77;3.50;;;19.50;99.90;;;;;;4924240;28;206331;-68
2022/08/25 05:30:59;;;;;;;12.10;3.42;;;19.50;99.90;;;;;;4965455;28;20519;-68
2022/08/25 05:33:26;;;;;;;11.23;3.60;;;19.60;99.90;;;;;;4907518;28;208026;-67
2022/08/25 05:35:52;;;;;;;10.13;3.50;;;19.60;99.90;;;;;;4971475;28;20054;-67
2022/08/25 05:38:18;;;;;;;13.70;3.50;;;19.70;99.90;;;;;;4916396;28;246978;-68
2022/08/25 05:40:44;;;;;;;9.43;3.13;;;19.70;99.90;;;;;;4970216;28;20111;-68
2022/08/25 05:43:13;;;;;;;14.32;3.38;;;19.70;99.90;;;;;;4926823;28;260056;-68
2022/08/25 05:45:40;;;;;;;10.48;3.38;;;19.80;99.90;;;;;;4977880;28;20070;-69
2022/08/25 05:48:06;;;;;;;10.17;3.43;;;19.80;99.90;;;;;;4918125;28;255325;-68
2022/08/25 05:50:32;;;;;;;10.30;3.38;;;19.90;99.90;;;;;;4980088;28;20054;-69
2022/08/25 05:52:58;;;;;;;10.90;3.50;;;19.90;99.90;;;;;;4879056;28;1104235;-67
2022/08/25 05:55:24;;;;;;;9.57;3.60;;;20.00;99.90;;;;;;4957091;28;20636;-68
2022/08/25 05:57:50;;;;;;;9.40;3.53;;;20.00;99.90;;;;;;4939024;28;268086;-68
2022/08/25 06:00:17;;;;;;;11.35;3.42;;;20.10;99.90;;;;;;4960545;28;20061;-68
2022/08/25 06:02:45;;;;;;;8.80;3.50;;;20.20;99.90;;;;;;4947480;28;266788;-69
2022/08/25 06:05:16;;;;;;;10.98;3.53;;;20.20;99.80;;;;;;4872067;28;210415;-68
2022/08/25 06:07:44;;;;;;;11.93;3.65;;;20.30;99.70;;;;;;4962735;28;254410;-68
2022/08/25 06:10:10;;;;;;;12.52;3.75;;;20.30;99.60;;;;;;4940552;28;206304;-68
2022/08/25 06:12:38;;;;;;;11.52;3.45;;;20.40;99.60;;;;;;4963764;28;274029;-68
2022/08/25 06:15:04;;;;;;;11.38;3.70;;;20.50;99.50;;;;;;4924090;28;210414;-68
2022/08/25 06:17:31;;;;;;;12.48;3.47;;;20.60;99.50;;;;;;4960299;28;257571;-68
2022/08/25 06:19:57;;;;;;;13.30;3.75;;;20.60;99.50;;;;;;4921132;28;206941;-68
2022/08/25 06:22:26;;;;;;;11.70;3.75;;;20.80;99.50;;;;;;4943773;28;178099;-68
2022/08/25 06:24:52;;;;;;;11.75;3.50;;;21.00;99.60;;;;;;4940048;28;205614;-68
2022/08/25 06:27:18;;;;;;;11.05;3.40;;;21.20;99.50;;;;;;4956326;28;255805;-68
2022/08/25 06:29:47;;;;;;;12.13;3.33;;;21.60;99.40;;;;;;4931083;28;181266;-67
2022/08/25 06:32:13;;;;;;;9.05;3.60;;;22.00;99.20;;;;;;4959563;28;174312;-68
2022/08/25 06:34:40;;;;;;;8.88;3.28;;;22.40;99.00;;;;;;4927700;28;206864;-67
2022/08/25 06:37:06;;;;;;;11.43;3.30;;;22.60;98.40;;;;;;4954731;28;274512;-68
2022/08/25 06:39:33;;;;;;;12.45;3.50;;;22.80;98.30;;;;;;4929190;28;208751;-69
2022/08/25 06:41:59;;;;;;;10.77;3.58;;;23.10;98.10;;;;;;4957751;28;20070;-68
2022/08/25 06:44:26;;;;;;;9.32;3.53;;;23.40;98.10;;;;;;4930729;28;206813;-69
2022/08/25 06:46:52;;;;;;;12.57;3.55;;;23.70;97.80;;;;;;4956715;28;259962;-68
2022/08/25 06:49:19;;;;;;;9.68;2.95;;;23.90;97.30;;;;;;4923987;28;208961;-70
2022/08/25 06:51:45;;;;;;;11.73;3.20;;;24.20;97.20;;;;;;4956716;28;271146;-68
2022/08/25 06:54:12;;;;;;;9.63;3.20;;;24.40;97.00;;;;;;4935800;28;215873;-68
2022/08/25 06:56:41;;;;;;;13.02;3.35;;;24.50;96.70;;;;;;4954172;28;262001;-68
2022/08/25 06:59:08;;;;;;;11.27;3.10;;;24.60;96.10;;;;;;4936730;28;208220;-68
2022/08/25 07:01:35;;;;;;;11.90;3.35;;;24.70;96.10;;;;;;4934430;28;260673;-69
2022/08/25 07:04:03;;;;;;;9.18;2.95;;;24.90;95.90;;;;;;4929327;28;214505;-68
2022/08/25 07:06:34;;;;;;;10.82;3.30;;;25.20;95.70;;;;;;4954776;28;266287;-67
2022/08/25 07:09:02;;;;;;;10.23;3.25;;;25.40;95.20;;;;;;4938844;28;207455;-68
2022/08/25 07:11:28;;;;;;;10.25;3.17;;;25.50;95.20;;;;;;4955247;28;252398;-68
2022/08/25 07:13:54;;;;;;;12.35;3.30;;;25.80;94.80;;;;;;4932509;28;207572;-69
2022/08/25 07:16:20;;;;;;;11.52;3.40;;;26.00;94.70;;;;;;4952609;28;268065;-69
2022/08/25 07:18:47;;;;;;;11.90;3.15;;;26.20;94.40;;;;;;4933656;28;203706;-69
2022/08/25 07:21:13;;;;;;;13.90;3.43;;;26.50;94.30;;;;;;4951498;28;276484;-68
2022/08/25 07:23:41;;;;;;;8.50;3.20;;;26.60;93.90;;;;;;4943664;28;206192;-68
2022/08/25 07:26:23;;;;;;;10.70;3.53;;;26.90;94.10;;;;;;4946852;28;261961;-69
2022/08/25 07:28:49;;;;;;;9.82;3.30;;;27.30;92.90;;;;;;4939814;28;209952;-68
2022/08/25 07:31:16;;;;;;;9.43;3.20;;;27.50;92.90;;;;;;4954982;28;260363;-68
2022/08/25 07:35:14;;;;;;;8.27;3.20;;;27.60;92.50;;;;;;4932853;28;207259;-68
2022/08/25 07:36:30;;;;;;;9.95;3.15;;;27.70;92.60;;;;;;4953047;28;265703;-69
2022/08/25 07:38:58;;;;;;;9.95;2.95;;;28.00;92.20;;;;;;4932229;28;208544;-69
2022/08/25 07:41:25;;;;;;;10.25;2.90;;;28.20;91.60;;;;;;4945280;28;232770;-69
2022/08/25 07:43:51;;;;;;;8.13;2.83;;;28.30;91.50;;;;;;4944207;28;186197;-70
2022/08/25 07:46:18;;;;;;;9.90;3.05;;;28.50;91.10;;;;;;4958338;28;250312;-70
2022/08/25 07:48:44;;;;;;;9.70;3.15;;;28.60;90.80;;;;;;4941547;28;207702;-70
2022/08/25 07:51:13;;;;;;;9.95;3.00;;;28.90;90.70;;;;;;4946007;28;270605;-68
2022/08/25 07:53:39;;;;;;;8.95;2.92;;;29.20;90.50;;;;;;4906299;28;210534;-69
2022/08/25 07:56:10;;;;;;;10.87;3.13;;;29.50;90.20;;;;;;4938699;28;269400;-69
2022/08/25 07:58:37;;;;;;;7.97;2.80;;;29.80;89.80;;;;;;4913859;28;211010;-69
2022/08/25 08:01:04;;;;;;;11.10;3.20;;;30.00;88.70;;;;;;4937341;28;271350;-69
2022/08/25 08:03:32;;;;;;;9.35;2.80;;;30.10;88.30;;;;;;4920623;28;207158;-69
2022/08/25 08:06:00;;;;;;;9.00;2.97;;;30.30;87.80;;;;;;4949398;28;269530;-67
2022/08/25 08:08:27;;;;;;;9.50;3.00;;;30.50;87.00;;;;;;4942258;28;206760;-68
2022/08/25 08:10:53;;;;;;;9.75;3.10;;;30.60;86.40;;;;;;4975445;28;21181;-69
2022/08/25 08:13:19;;;;;;;10.68;2.60;;;30.80;85.20;;;;;;4925414;28;251052;-68
2022/08/25 08:15:46;;;;;;;9.98;3.10;;;31.00;84.40;;;;;;4974839;28;20051;-68
2022/08/25 08:18:12;;;;;;;10.05;3.15;;;31.10;84.20;;;;;;4915547;28;250473;-69
2022/08/25 08:20:38;;;;;;;12.13;2.92;;;31.30;82.80;;;;;;4960103;28;20054;-69
2022/08/25 08:23:05;;;;;;;8.43;2.60;;;31.40;82.10;;;;;;4919896;28;272144;-70
2022/08/25 08:25:32;;;;;;;10.93;2.78;;;31.50;82.30;;;;;;4977332;28;20686;-68
2022/08/25 08:27:58;;;;;;;10.43;2.95;;;31.90;81.30;;;;;;4919990;28;253320;-68
2022/08/25 08:30:24;;;;;;;9.32;2.72;;;32.20;80.00;;;;;;4981077;28;20038;-70
2022/08/25 08:32:50;;;;;;;13.55;3.10;;;32.50;78.60;;;;;;4940188;28;254429;-69
2022/08/25 08:35:17;;;;;;;9.18;2.72;;;32.70;77.80;;;;;;4953689;28;129507;-69
2022/08/25 08:37:45;;;;;;;11.30;2.80;;;32.90;77.30;;;;;;4955627;28;262815;-70
2022/08/25 08:40:14;;;;;;;9.25;2.90;;;33.00;76.80;;;;;;4930552;28;210138;-70
2022/08/25 08:43:16;;;;;;;8.63;2.67;;;33.10;74.90;;;;;;4958913;28;275473;-69
2022/08/25 08:45:50;;;;;;;8.07;2.70;;;33.20;74.50;;;;;;4923362;28;204953;-68
2022/08/25 08:48:19;;;;;;;10.07;2.60;;;33.30;73.70;;;;;;4924323;28;257038;-69
2022/08/25 08:51:20;;;;;;;14.15;2.80;;;33.50;72.80;;;;;;4976356;28;20062;-69
2022/08/25 08:53:58;;;;;;;10.77;2.80;;;33.70;69.90;;;;;;4911740;28;206016;-69
2022/08/25 08:56:41;;;;;;;13.13;2.60;;;33.80;71.00;;;;;;4956618;28;261025;-69
2022/08/25 08:59:18;;;;;;;11.15;2.60;;;33.90;70.10;;;;;;4937680;28;210570;-69
2022/08/25 09:01:46;;;;;;;10.65;2.70;;;34.00;69.10;;;;;;4939170;28;201341;-69
2022/08/25 09:04:32;;;;;;;8.57;2.50;;;34.20;69.70;;;;;;4941380;28;210413;-69
2022/08/25 09:07:01;;;;;;;9.82;2.60;;;34.60;68.50;;;;;;4953053;28;196533;-70
2022/08/25 09:09:31;;;;;;;10.07;2.67;;;34.70;67.60;;;;;;4923569;28;205031;-69
2022/08/25 09:12:11;;;;;;;10.57;2.25;;;34.90;66.90;;;;;;4956009;28;262152;-70
2022/08/25 09:14:43;;;;;;;8.63;2.42;;;35.20;67.20;;;;;;4940671;28;206441;-70
2022/08/25 09:17:37;;;;;;;11.60;2.45;;;35.40;66.00;;;;;;4960962;28;252050;-70
2022/08/25 09:20:25;;;;;;;8.93;2.40;;;35.40;63.00;;;;;;4929737;28;209578;-70
2022/08/25 09:23:08;;;;;;;11.20;2.40;;;35.50;64.30;;;;;;4937650;28;262510;-70
2022/08/25 09:25:57;;;;;;;9.32;2.60;;;35.50;63.10;;;;;;4958609;28;206732;-70
2022/08/25 09:28:31;;;;;;;9.18;2.28;;;35.80;63.00;;;;;;4897099;28;212902;-70
2022/08/25 09:31:03;;;;;;;7.03;2.30;;;35.90;61.50;;;;;;4956866;28;268142;-69
2022/08/25 09:33:32;;;;;;;8.63;2.22;;;35.80;61.80;;;;;;4922397;28;206762;-69
2022/08/25 09:35:58;;;;;;;9.50;2.20;;;35.90;60.50;;;;;;4954350;28;269947;-70
2022/08/25 09:38:27;;;;;;;9.38;2.30;;;36.00;60.90;;;;;;4921892;28;206783;-70
2022/08/25 09:40:57;;;;;;;7.90;2.00;;;36.00;59.20;;;;;;4960758;28;20070;-70
2022/08/25 09:43:34;;;;;;;;;;;36.00;58.40;;;;;;4928597;28;209579;-70
2022/08/25 09:46:09;;;;;;;7.70;2.13;;;36.00;56.50;;;;;;4964040;28;260890;-69
2022/08/25 09:48:58;;;;;;;8.88;2.20;;;36.10;58.70;;;;;;4947397;28;149690;-71
2022/08/25 09:51:31;;;;;;;8.37;1.70;;;36.50;57.80;;;;;;4953639;28;174738;-70
2022/08/25 09:54:03;;;;;;;8.65;1.80;;;36.70;57.00;;;;;;4929573;28;210202;-71
2022/08/25 09:56:32;;;;;;;11.20;1.98;;;36.60;55.80;;;;;;4952283;28;284936;-70
2022/08/25 09:59:19;;;;;;;8.35;1.70;;;36.80;56.00;;;;;;4937237;28;206301;-70
2022/08/25 10:01:54;;;;;;;7.90;1.90;;;37.20;55.70;;;;;;4944341;28;265814;-70
2022/08/25 10:04:27;;;;;;;8.18;1.80;;;37.60;54.80;;;;;;4911439;28;219807;-69
2022/08/25 10:06:54;;;;;;;10.48;1.90;;;37.80;53.90;;;;;;4956052;28;260056;-70
2022/08/25 10:09:42;;;;;;;10.98;2.08;;;37.70;54.20;;;;;;4942690;28;213041;-70
2022/08/25 10:12:27;;;;;;;9.32;1.83;;;37.70;52.00;;;;;;4959410;28;257172;-70
2022/08/25 10:14:53;;;;;;;8.80;1.65;;;37.70;52.90;;;;;;4942944;28;170608;-70
2022/08/25 10:17:26;;;;;;;10.50;2.15;;;37.80;52.80;;;;;;4956590;28;109941;-70
2022/08/25 10:20:12;;;;;;;8.38;1.83;;;38.10;51.80;;;;;;4928804;28;215227;-70
2022/08/25 10:22:40;;;;;;;9.10;2.10;;;38.10;50.50;;;;;;4961097;28;275298;-70
2022/08/25 10:25:09;;;;;;;8.27;2.07;;;38.00;50.90;;;;;;4932573;28;208115;-69
2022/08/25 10:27:57;;;;;;;11.55;2.13;;;38.10;51.00;;;;;;4962230;28;265498;-70
2022/08/25 10:30:48;;;;;;;7.88;1.83;;;38.00;50.60;;;;;;4917047;28;212867;-70
2022/08/25 10:33:44;;;;;;;8.02;1.95;;;38.10;50.00;;;;;;4922856;28;271854;-69
2022/08/25 10:36:31;;;;;;;8.10;1.90;;;38.40;49.30;;;;;;4958920;28;258878;-70
2022/08/25 10:39:00;;;;;;;7.10;1.90;;;38.70;48.60;;;;;;4921773;28;147227;-69
2022/08/25 10:41:32;;;;;;;;;;;38.70;49.50;;;;;;4936635;28;275156;-70
2022/08/25 10:45:41;;;;;;;7.03;1.80;;;38.80;49.00;;;;;;4914889;28;206552;-71
2022/08/25 10:47:49;;;;;;;13.30;1.95;;;38.80;48.00;;;;;;4946696;28;252125;-70
2022/08/25 10:50:34;;;;;;;8.13;2.00;;;38.90;47.40;;;;;;4833211;29;206385;-70
2022/08/25 10:53:26;;;;;;;6.47;1.70;;;38.90;47.90;;;;;;4845713;29;206569;-70
2022/08/25 10:56:06;;;;;;;6.63;1.73;;;38.80;46.90;;;;;;4887348;29;20053;-70
2022/08/25 10:58:53;;;;;;;9.35;2.03;;;39.00;47.00;;;;;;4816599;29;204857;-70
2022/08/25 11:01:50;;;;;;;9.20;1.92;;;39.30;47.80;;;;;;4861663;29;124160;-69
2022/08/25 11:04:38;;;;;;;7.80;1.88;;;39.60;47.00;;;;;;4833984;29;189287;-70
2022/08/25 11:07:09;;;;;;;7.75;1.90;;;39.70;47.40;;;;;;4882698;29;107659;-69
2022/08/25 11:09:41;;;;;;;10.40;2.10;;;39.90;46.80;;;;;;4844144;29;208511;-69
2022/08/25 11:12:15;;;;;;;6.97;1.67;;;40.10;46.60;;;;;;4883739;29;114538;-70
2022/08/25 11:14:51;;;;;;;8.00;1.70;;;40.40;45.80;;;;;;4832694;29;209369;-70
2022/08/25 11:17:27;;;;;;;8.15;1.90;;;40.70;44.80;;;;;;4887322;29;50261;-69
2022/08/25 11:20:02;;;;;;;8.40;1.70;;;40.70;44.40;;;;;;4829566;29;207790;-70
2022/08/25 11:22:37;;;;;;;10.55;2.00;;;40.40;43.50;;;;;;4879120;29;24239;-70
2022/08/25 11:25:28;;;;;;;6.55;1.67;;;40.30;45.20;;;;;;4876242;28;206362;-70
2022/08/25 11:28:00;;;;;;;7.78;1.80;;;40.40;44.40;;;;;;4923310;28;274512;-69
2022/08/25 11:30:27;;;;;;;11.85;2.05;;;40.40;44.40;;;;;;4980825;28;20146;-70
2022/08/25 11:32:55;;;;;;;8.68;1.77;;;40.60;44.30;;;;;;4924698;28;270106;-69
2022/08/25 11:35:30;;;;;;;7.63;1.80;;;40.30;43.90;;;;;;4959875;28;20059;-71
2022/08/25 11:38:14;;;;;;;7.20;1.70;;;40.30;43.60;;;;;;4926988;28;264023;-69
2022/08/25 11:40:56;;;;;;;7.82;2.00;;;40.50;43.90;;;;;;4972127;28;20077;-70
2022/08/25 11:43:56;;;;;;;9.35;1.98;;;40.70;44.30;;;;;;4894482;28;214042;-70
2022/08/25 11:46:50;;;;;;;7.15;1.90;;;40.90;42.70;;;;;;4956512;28;267738;-71
2022/08/25 11:49:40;;;;;;;8.18;1.80;;;40.70;42.50;;;;;;4930969;28;209799;-70
2022/08/25 11:52:40;;;;;;;6.82;1.75;;;40.50;41.80;;;;;;4957619;28;260533;-69
2022/08/25 11:55:14;;;;;;;8.07;1.80;;;40.90;43.00;;;;;;4921205;28;150201;-70
2022/08/25 11:57:42;;;;;;;6.97;1.77;;;41.20;43.50;;;;;;4918051;28;200183;-71
2022/08/25 12:00:13;;;;;;;10.43;1.77;;;41.40;43.10;;;;;;4929866;28;209189;-70
2022/08/25 12:02:45;;;;;;;5.55;1.67;;;41.50;43.40;;;;;;4945827;28;254766;-70
2022/08/25 12:05:34;;;;;;;8.23;2.05;;;41.70;42.80;;;;;;4929035;28;209228;-71
2022/08/25 12:11:01;;;;;;;7.25;1.90;;;41.70;42.20;;;;;;4971651;28;20131;-69
2022/08/25 12:13:44;;;;;;;10.13;1.92;;;41.60;41.60;;;;;;4907743;28;211358;-70
2022/08/25 12:16:35;;;;;;;8.55;2.05;;;41.70;42.00;;;;;;4956426;28;258101;-70
2022/08/25 12:19:23;;;;;;;7.32;2.10;;;41.90;42.20;;;;;;4939927;28;147268;-70
2022/08/25 12:21:51;;;;;;;9.00;2.15;;;42.00;40.90;;;;;;4955212;28;271606;-70
2022/08/25 12:24:40;;;;;;;10.35;1.90;;;41.90;41.70;;;;;;4943491;28;208029;-70
2022/08/25 12:27:28;;;;;;;11.75;2.20;;;42.10;42.30;;;;;;4954481;28;64231;-71
2022/08/25 12:29:57;;;;;;;9.80;2.30;;;42.30;41.40;;;;;;4941254;28;206126;-71
2022/08/25 12:32:36;;;;;;;9.40;2.00;;;42.30;41.40;;;;;;4958930;28;264482;-71
2022/08/25 12:35:15;;;;;;;6.97;1.70;;;42.40;41.50;;;;;;4936986;28;209918;-70
2022/08/25 12:38:09;;;;;;;10.20;1.92;;;42.40;42.00;;;;;;4962638;28;268128;-71
2022/08/25 12:40:41;;;;;;;8.27;1.70;;;42.40;40.00;;;;;;4931933;28;207121;-70
2022/08/25 12:43:27;;;;;;;5.78;1.60;;;41.90;39.30;;;;;;4919833;28;157227;-70
2022/08/25 12:46:14;;;;;;;6.53;1.50;;;41.70;38.80;;;;;;4978847;28;21425;-71
2022/08/25 12:48:56;;;;;;;7.35;1.60;;;41.70;41.10;;;;;;4923511;28;207209;-70
2022/08/25 12:51:25;;;;;;;9.55;1.80;;;41.90;39.40;;;;;;4961255;28;267235;-70
2022/08/25 12:54:00;;;;;;;6.43;1.70;;;42.00;40.70;;;;;;4930454;28;208469;-70
2022/08/25 12:56:36;;;;;;;8.98;1.70;;;42.20;39.80;;;;;;4951872;28;270915;-70
2022/08/25 12:59:05;;;;;;;6.82;1.80;;;42.10;40.40;;;;;;4947075;28;165257;-70
2022/08/25 13:01:42;;;;;;;8.00;1.70;;;42.10;40.00;;;;;;4943577;28;258959;-70